sensor_id;sensor_type;location;lat;lon;timestamp;pressure;altitude;pressure_sealevel;temperature;humidity
77739;BME280;66904;59.926;30.404;2023-07-31T00:04:17;100676.38;;;27.24;48.55
77739;BME280;66904;59.926;30.404;2023-07-31T00:09:18;100676.16;;;27.26;48.24
77739;BME280;66904;59.926;30.404;2023-07-31T00:14:18;100677.19;;;27.25;48.23
77739;BME280;66904;59.926;30.404;2023-07-31T00:19:19;100686.44;;;27.24;48.40
77739;BME280;66904;59.926;30.404;2023-07-31T00:24:19;100686.63;;;27.22;48.43
77739;BME280;66904;59.926;30.404;2023-07-31T00:29:20;100679.31;;;27.23;48.18
77739;BME280;66904;59.926;30.404;2023-07-31T00:34:21;100680.38;;;27.22;48.02
77739;BME280;66904;59.926;30.404;2023-07-31T00:39:21;100691.22;;;27.22;47.97
77739;BME280;66904;59.926;30.404;2023-07-31T00:44:22;100692.72;;;27.18;47.85
77739;BME280;66904;59.926;30.404;2023-07-31T00:49:22;100697.75;;;27.21;47.87
77739;BME280;66904;59.926;30.404;2023-07-31T00:54:23;100704.44;;;27.18;48.07
77739;BME280;66904;59.926;30.404;2023-07-31T00:59:24;100705.72;;;27.16;48.56
77739;BME280;66904;59.926;30.404;2023-07-31T01:04:24;100700.72;;;27.13;48.41
77739;BME280;66904;59.926;30.404;2023-07-31T01:15:07;100705.16;;;27.07;48.45
77739;BME280;66904;59.926;30.404;2023-07-31T01:30:41;100691.41;;;27.02;48.44
77739;BME280;66904;59.926;30.404;2023-07-31T01:35:48;100692.25;;;27.03;48.37
77739;BME280;66904;59.926;30.404;2023-07-31T01:40:51;100680.34;;;27.04;48.32
77739;BME280;66904;59.926;30.404;2023-07-31T01:45:52;100691.84;;;26.99;48.43
77739;BME280;66904;59.926;30.404;2023-07-31T01:50:53;100685.19;;;26.95;47.93
77739;BME280;66904;59.926;30.404;2023-07-31T01:55:53;100683.69;;;26.99;48.34
77739;BME280;66904;59.926;30.404;2023-07-31T02:00:54;100686.88;;;26.96;48.09
77739;BME280;66904;59.926;30.404;2023-07-31T02:05:55;100689.78;;;26.95;48.58
77739;BME280;66904;59.926;30.404;2023-07-31T02:10:56;100675.00;;;26.91;48.26
77739;BME280;66904;59.926;30.404;2023-07-31T02:15:57;100684.41;;;26.88;47.99
77739;BME280;66904;59.926;30.404;2023-07-31T02:20:58;100675.22;;;26.89;48.37
77739;BME280;66904;59.926;30.404;2023-07-31T02:25:58;100681.03;;;26.93;47.85
77739;BME280;66904;59.926;30.404;2023-07-31T02:30:59;100681.63;;;26.95;48.27
77739;BME280;66904;59.926;30.404;2023-07-31T02:35:59;100680.59;;;26.96;48.02
77739;BME280;66904;59.926;30.404;2023-07-31T02:41:00;100684.34;;;26.95;47.84
77739;BME280;66904;59.926;30.404;2023-07-31T02:46:00;100685.19;;;26.95;47.83
77739;BME280;66904;59.926;30.404;2023-07-31T02:51:01;100672.91;;;26.93;47.68
77739;BME280;66904;59.926;30.404;2023-07-31T02:56:01;100670.41;;;26.91;48.19
77739;BME280;66904;59.926;30.404;2023-07-31T03:01:02;100674.78;;;26.92;47.81
77739;BME280;66904;59.926;30.404;2023-07-31T03:06:03;100671.84;;;26.94;48.17
77739;BME280;66904;59.926;30.404;2023-07-31T03:11:03;100669.97;;;26.94;48.07
77739;BME280;66904;59.926;30.404;2023-07-31T03:16:04;100667.84;;;26.96;47.72
77739;BME280;66904;59.926;30.404;2023-07-31T03:21:04;100656.16;;;26.96;48.18
77739;BME280;66904;59.926;30.404;2023-07-31T03:26:07;100660.75;;;26.95;47.99
77739;BME280;66904;59.926;30.404;2023-07-31T03:31:07;100661.81;;;26.94;47.91
77739;BME280;66904;59.926;30.404;2023-07-31T03:36:08;100660.59;;;26.90;47.71
77739;BME280;66904;59.926;30.404;2023-07-31T03:41:09;100658.94;;;26.89;48.20
77739;BME280;66904;59.926;30.404;2023-07-31T03:46:10;100652.00;;;26.93;48.05
77739;BME280;66904;59.926;30.404;2023-07-31T03:51:11;100651.19;;;26.93;47.84
77739;BME280;66904;59.926;30.404;2023-07-31T03:56:12;100649.13;;;26.88;47.78
77739;BME280;66904;59.926;30.404;2023-07-31T04:01:12;100649.13;;;26.88;48.27
77739;BME280;66904;59.926;30.404;2023-07-31T04:06:13;100654.53;;;26.88;48.48
77739;BME280;66904;59.926;30.404;2023-07-31T04:11:13;100642.59;;;26.96;48.74
77739;BME280;66904;59.926;30.404;2023-07-31T04:16:14;100645.47;;;27.01;48.40
77739;BME280;66904;59.926;30.404;2023-07-31T04:21:15;100639.81;;;27.02;48.52
77739;BME280;66904;59.926;30.404;2023-07-31T04:26:15;100630.22;;;27.00;48.75
77739;BME280;66904;59.926;30.404;2023-07-31T04:31:16;100643.28;;;27.09;48.87
77739;BME280;66904;59.926;30.404;2023-07-31T04:36:16;100640.75;;;27.14;49.28
77739;BME280;66904;59.926;30.404;2023-07-31T04:41:17;100635.31;;;27.14;49.28
77739;BME280;66904;59.926;30.404;2023-07-31T04:46:18;100638.19;;;27.19;49.33
77739;BME280;66904;59.926;30.404;2023-07-31T04:51:18;100637.34;;;27.19;49.41
77739;BME280;66904;59.926;30.404;2023-07-31T04:56:19;100638.19;;;27.19;49.04
77739;BME280;66904;59.926;30.404;2023-07-31T05:01:19;100630.63;;;27.21;49.51
77739;BME280;66904;59.926;30.404;2023-07-31T05:06:20;100632.91;;;27.24;49.00
77739;BME280;66904;59.926;30.404;2023-07-31T05:11:20;100627.09;;;27.21;49.57
77739;BME280;66904;59.926;30.404;2023-07-31T05:16:21;100622.28;;;27.23;49.00
77739;BME280;66904;59.926;30.404;2023-07-31T05:21:22;100627.72;;;27.23;48.76
77739;BME280;66904;59.926;30.404;2023-07-31T05:26:22;100627.31;;;27.19;49.45
77739;BME280;66904;59.926;30.404;2023-07-31T05:31:23;100627.09;;;27.21;48.75
77739;BME280;66904;59.926;30.404;2023-07-31T05:36:24;100628.75;;;27.22;49.21
77739;BME280;66904;59.926;30.404;2023-07-31T05:41:25;100626.66;;;27.24;49.21
77739;BME280;66904;59.926;30.404;2023-07-31T05:46:25;100626.66;;;27.24;48.94
77739;BME280;66904;59.926;30.404;2023-07-31T05:51:26;100626.41;;;27.26;48.86
77739;BME280;66904;59.926;30.404;2023-07-31T05:56:27;100619.16;;;27.19;48.80
77739;BME280;66904;59.926;30.404;2023-07-31T06:01:28;100616.00;;;27.22;48.90
77739;BME280;66904;59.926;30.404;2023-07-31T06:06:29;100627.47;;;27.24;48.44
77739;BME280;66904;59.926;30.404;2023-07-31T06:11:29;100627.25;;;27.26;48.25
77739;BME280;66904;59.926;30.404;2023-07-31T06:16:30;100625.38;;;27.27;48.28
77739;BME280;66904;59.926;30.404;2023-07-31T06:21:30;100630.81;;;27.27;47.85
77739;BME280;66904;59.926;30.404;2023-07-31T06:26:31;100637.06;;;27.27;48.14
77739;BME280;66904;59.926;30.404;2023-07-31T06:31:34;100626.88;;;27.22;48.24
77739;BME280;66904;59.926;30.404;2023-07-31T06:36:35;100625.38;;;27.27;48.01
77739;BME280;66904;59.926;30.404;2023-07-31T06:41:35;100627.03;;;27.28;47.97
77739;BME280;66904;59.926;30.404;2023-07-31T06:46:36;100625.13;;;27.28;47.71
77739;BME280;66904;59.926;30.404;2023-07-31T06:51:36;100629.75;;;27.28;48.08
77739;BME280;66904;59.926;30.404;2023-07-31T06:56:38;100627.03;;;27.28;47.80
77739;BME280;66904;59.926;30.404;2023-07-31T07:01:39;100617.22;;;27.27;47.81
77739;BME280;66904;59.926;30.404;2023-07-31T07:06:39;100616.38;;;27.26;47.85
77739;BME280;66904;59.926;30.404;2023-07-31T07:11:40;100617.44;;;27.25;47.17
77739;BME280;66904;59.926;30.404;2023-07-31T07:16:40;100612.69;;;27.20;47.29
77739;BME280;66904;59.926;30.404;2023-07-31T07:21:41;100616.59;;;27.24;47.53
77739;BME280;66904;59.926;30.404;2023-07-31T07:26:41;100622.88;;;27.25;47.50
77739;BME280;66904;59.926;30.404;2023-07-31T07:31:42;100625.59;;;27.25;47.31
77739;BME280;66904;59.926;30.404;2023-07-31T07:36:43;100619.31;;;27.24;46.93
77739;BME280;66904;59.926;30.404;2023-07-31T07:41:43;100623.69;;;27.26;46.89
77739;BME280;66904;59.926;30.404;2023-07-31T07:46:44;100623.69;;;27.26;46.97
77739;BME280;66904;59.926;30.404;2023-07-31T07:51:44;100622.03;;;27.24;47.21
77739;BME280;66904;59.926;30.404;2023-07-31T07:56:45;100623.69;;;27.26;47.34
77739;BME280;66904;59.926;30.404;2023-07-31T08:01:45;100627.25;;;27.26;46.87
77739;BME280;66904;59.926;30.404;2023-07-31T08:06:46;100630.81;;;27.27;47.08
77739;BME280;66904;59.926;30.404;2023-07-31T08:11:46;100621.44;;;27.22;46.77
77739;BME280;66904;59.926;30.404;2023-07-31T08:16:47;100628.47;;;27.30;46.42
77739;BME280;66904;59.926;30.404;2023-07-31T08:21:47;100631.31;;;27.35;47.12
77739;BME280;66904;59.926;30.404;2023-07-31T08:26:48;100641.53;;;27.40;46.51
77739;BME280;66904;59.926;30.404;2023-07-31T08:31:48;100628.31;;;27.43;46.34
77739;BME280;66904;59.926;30.404;2023-07-31T08:36:49;100622.06;;;27.43;46.81
77739;BME280;66904;59.926;30.404;2023-07-31T08:41:49;100629.78;;;27.46;46.20
77739;BME280;66904;59.926;30.404;2023-07-31T08:46:50;100631.47;;;27.47;46.06
77739;BME280;66904;59.926;30.404;2023-07-31T08:51:54;100635.22;;;27.46;46.10
77739;BME280;66904;59.926;30.404;2023-07-31T08:56:56;100639.38;;;27.48;46.07
77739;BME280;66904;59.926;30.404;2023-07-31T09:02:01;100631.47;;;27.47;46.30
77739;BME280;66904;59.926;30.404;2023-07-31T09:07:05;100640.00;;;27.50;46.07
77739;BME280;66904;59.926;30.404;2023-07-31T09:12:06;100637.03;;;27.52;45.83
77739;BME280;66904;59.926;30.404;2023-07-31T09:17:07;100623.69;;;27.50;45.98
77739;BME280;66904;59.926;30.404;2023-07-31T09:22:07;100631.97;;;27.55;45.56
77739;BME280;66904;59.926;30.404;2023-07-31T09:27:08;100636.38;;;27.56;45.69
77739;BME280;66904;59.926;30.404;2023-07-31T09:32:16;100626.91;;;27.59;45.14
77739;BME280;66904;59.926;30.404;2023-07-31T09:37:17;100637.56;;;27.60;45.65
77739;BME280;66904;59.926;30.404;2023-07-31T09:42:26;100640.88;;;27.62;45.34
77739;BME280;66904;59.926;30.404;2023-07-31T09:47:27;100638.16;;;27.62;45.80
77739;BME280;66904;59.926;30.404;2023-07-31T09:52:27;100621.84;;;27.62;45.58
77739;BME280;66904;59.926;30.404;2023-07-31T09:57:28;100622.91;;;27.61;45.54
77739;BME280;66904;59.926;30.404;2023-07-31T10:02:30;100626.25;;;27.63;45.16
77739;BME280;66904;59.926;30.404;2023-07-31T10:07:36;100607.69;;;27.60;45.19
77739;BME280;66904;59.926;30.404;2023-07-31T10:12:38;100614.91;;;27.66;45.44
77739;BME280;66904;59.926;30.404;2023-07-31T10:17:39;100617.38;;;27.68;45.25
77739;BME280;66904;59.926;30.404;2023-07-31T10:22:41;100612.78;;;27.68;45.31
77739;BME280;66904;59.926;30.404;2023-07-31T10:27:42;100608.84;;;27.64;45.27
77739;BME280;66904;59.926;30.404;2023-07-31T10:32:44;100607.97;;;27.70;45.38
77739;BME280;66904;59.926;30.404;2023-07-31T10:37:45;100602.75;;;27.69;45.58
77739;BME280;66904;59.926;30.404;2023-07-31T10:42:53;100617.56;;;27.73;45.44
77739;BME280;66904;59.926;30.404;2023-07-31T10:48:32;100606.31;;;27.69;44.89
77739;BME280;66904;59.926;30.404;2023-07-31T10:53:34;100606.44;;;27.74;45.24
77739;BME280;66904;59.926;30.404;2023-07-31T10:58:37;100595.81;;;27.73;44.81
77739;BME280;66904;59.926;30.404;2023-07-31T11:03:43;100603.97;;;27.73;45.25
77739;BME280;66904;59.926;30.404;2023-07-31T11:08:46;100599.34;;;27.73;44.89
77739;BME280;66904;59.926;30.404;2023-07-31T11:13:48;100593.91;;;27.73;44.94
77739;BME280;66904;59.926;30.404;2023-07-31T11:18:54;100595.81;;;27.73;44.83
77739;BME280;66904;59.926;30.404;2023-07-31T11:23:57;100583.88;;;27.74;44.69
77739;BME280;66904;59.926;30.404;2023-07-31T11:28:57;100583.72;;;27.69;44.76
77739;BME280;66904;59.926;30.404;2023-07-31T11:34:05;100583.88;;;27.74;44.31
77739;BME280;66904;59.926;30.404;2023-07-31T11:39:08;100576.16;;;27.71;44.51
77739;BME280;66904;59.926;30.404;2023-07-31T11:44:09;100575.09;;;27.72;44.38
77739;BME280;66904;59.926;30.404;2023-07-31T11:49:10;100570.38;;;27.67;44.41
77739;BME280;66904;59.926;30.404;2023-07-31T11:54:10;100563.41;;;27.71;44.37
77739;BME280;66904;59.926;30.404;2023-07-31T11:59:13;100562.56;;;27.71;44.63
77739;BME280;66904;59.926;30.404;2023-07-31T12:04:14;100557.38;;;27.69;44.44
77739;BME280;66904;59.926;30.404;2023-07-31T12:09:14;100562.56;;;27.71;44.30
77739;BME280;66904;59.926;30.404;2023-07-31T12:14:25;100557.59;;;27.68;44.19
77739;BME280;66904;59.926;30.404;2023-07-31T12:19:26;100554.41;;;27.71;44.05
77739;BME280;66904;59.926;30.404;2023-07-31T12:24:30;100555.25;;;27.71;44.55
77739;BME280;66904;59.926;30.404;2023-07-31T12:29:34;100542.72;;;27.70;44.19
77739;BME280;66904;59.926;30.404;2023-07-31T12:34:42;100543.53;;;27.71;44.11
77739;BME280;66904;59.926;30.404;2023-07-31T12:39:43;100542.72;;;27.70;44.35
77739;BME280;66904;59.926;30.404;2023-07-31T12:44:44;100537.88;;;27.72;44.20
77739;BME280;66904;59.926;30.404;2023-07-31T12:49:45;100531.59;;;27.72;44.27
77739;BME280;66904;59.926;30.404;2023-07-31T12:54:45;100533.28;;;27.73;43.86
77739;BME280;66904;59.926;30.404;2023-07-31T12:59:46;100527.84;;;27.73;44.33
77739;BME280;66904;59.926;30.404;2023-07-31T13:04:46;100535.28;;;27.78;44.28
77739;BME280;66904;59.926;30.404;2023-07-31T13:09:48;100528.78;;;27.79;43.78
77739;BME280;66904;59.926;30.404;2023-07-31T13:14:50;100531.66;;;27.84;43.67
77739;BME280;66904;59.926;30.404;2023-07-31T13:19:50;100530.59;;;27.85;43.50
77739;BME280;66904;59.926;30.404;2023-07-31T13:24:51;100523.88;;;27.87;43.58
77739;BME280;66904;59.926;30.404;2023-07-31T13:29:52;100526.34;;;27.89;43.61
77739;BME280;66904;59.926;30.404;2023-07-31T13:34:52;100539.94;;;27.89;43.74
77739;BME280;66904;59.926;30.404;2023-07-31T13:39:53;100551.41;;;27.91;43.83
77739;BME280;66904;59.926;30.404;2023-07-31T13:44:53;100563.97;;;27.92;43.37
77739;BME280;66904;59.926;30.404;2023-07-31T13:49:56;100561.25;;;27.92;43.46
77739;BME280;66904;59.926;30.404;2023-07-31T13:54:56;100556.06;;;27.90;44.03
77739;BME280;66904;59.926;30.404;2023-07-31T13:59:57;100536.75;;;27.92;44.53
77739;BME280;66904;59.926;30.404;2023-07-31T14:04:58;100530.66;;;27.96;44.57
77739;BME280;66904;59.926;30.404;2023-07-31T14:09:58;100528.28;;;28.00;44.84
77739;BME280;66904;59.926;30.404;2023-07-31T14:14:59;100526.78;;;28.04;45.46
77739;BME280;66904;59.926;30.404;2023-07-31T14:19:59;100517.78;;;28.03;45.29
77739;BME280;66904;59.926;30.404;2023-07-31T14:25:00;100529.84;;;28.07;45.78
77739;BME280;66904;59.926;30.404;2023-07-31T14:30:01;100540.75;;;28.07;45.89
77739;BME280;66904;59.926;30.404;2023-07-31T14:35:02;100522.59;;;28.01;46.14
77739;BME280;66904;59.926;30.404;2023-07-31T14:40:03;100525.50;;;28.06;46.18
77739;BME280;66904;59.926;30.404;2023-07-31T14:45:05;100530.09;;;28.06;46.42
77739;BME280;66904;59.926;30.404;2023-07-31T14:50:06;100537.66;;;28.04;46.42
77739;BME280;66904;59.926;30.404;2023-07-31T14:55:07;100536.44;;;28.00;46.98
77739;BME280;66904;59.926;30.404;2023-07-31T15:00:09;100539.38;;;27.98;47.02
77739;BME280;66904;59.926;30.404;2023-07-31T15:05:10;100537.13;;;27.95;46.65
77739;BME280;66904;59.926;30.404;2023-07-31T15:10:11;100535.47;;;27.94;47.25
77739;BME280;66904;59.926;30.404;2023-07-31T15:15:11;100533.81;;;27.93;46.91
77739;BME280;66904;59.926;30.404;2023-07-31T15:20:12;100546.81;;;27.91;46.94
77739;BME280;66904;59.926;30.404;2023-07-31T15:25:13;100541.00;;;27.88;47.24
77739;BME280;66904;59.926;30.404;2023-07-31T15:30:13;100559.56;;;27.91;47.39
77739;BME280;66904;59.926;30.404;2023-07-31T15:35:14;100585.97;;;27.90;47.38
77739;BME280;66904;59.926;30.404;2023-07-31T15:40:15;100591.63;;;27.89;47.41
77739;BME280;66904;59.926;30.404;2023-07-31T15:45:15;100595.38;;;27.88;47.34
77739;BME280;66904;59.926;30.404;2023-07-31T15:50:16;100630.38;;;27.84;47.31
77739;BME280;66904;59.926;30.404;2023-07-31T15:55:16;100636.88;;;27.83;47.14
77739;BME280;66904;59.926;30.404;2023-07-31T16:00:18;100640.66;;;27.82;47.87
77739;BME280;66904;59.926;30.404;2023-07-31T16:05:18;100650.09;;;27.80;48.09
77739;BME280;66904;59.926;30.404;2023-07-31T16:10:19;100664.44;;;27.87;47.92
77739;BME280;66904;59.926;30.404;2023-07-31T16:15:19;100646.69;;;27.84;48.28
77739;BME280;66904;59.926;30.404;2023-07-31T16:20:20;100648.50;;;27.90;48.36
77739;BME280;66904;59.926;30.404;2023-07-31T16:25:20;100640.09;;;27.92;48.54
77739;BME280;66904;59.926;30.404;2023-07-31T16:30:21;100631.72;;;27.93;48.57
77739;BME280;66904;59.926;30.404;2023-07-31T16:35:21;100633.38;;;27.94;48.70
77739;BME280;66904;59.926;30.404;2023-07-31T16:40:22;100646.97;;;27.94;48.88
77739;BME280;66904;59.926;30.404;2023-07-31T16:45:23;100648.19;;;27.98;48.93
77739;BME280;66904;59.926;30.404;2023-07-31T16:50:23;100646.28;;;27.99;49.01
77739;BME280;66904;59.926;30.404;2023-07-31T16:55:24;100657.16;;;27.99;49.42
77739;BME280;66904;59.926;30.404;2023-07-31T17:00:24;100650.06;;;27.98;49.56
77739;BME280;66904;59.926;30.404;2023-07-31T17:05:25;100647.13;;;27.99;49.84
77739;BME280;66904;59.926;30.404;2023-07-31T17:10:26;100638.50;;;28.02;49.71
77739;BME280;66904;59.926;30.404;2023-07-31T17:15:26;100638.91;;;28.06;50.22
77739;BME280;66904;59.926;30.404;2023-07-31T17:20:28;100635.31;;;28.05;50.58
77739;BME280;66904;59.926;30.404;2023-07-31T17:25:30;100639.50;;;28.08;50.98
77739;BME280;66904;59.926;30.404;2023-07-31T17:30:30;100646.44;;;28.04;51.25
77739;BME280;66904;59.926;30.404;2023-07-31T17:35:31;100639.75;;;28.06;51.44
77739;BME280;66904;59.926;30.404;2023-07-31T17:40:32;100626.78;;;28.02;51.49
77739;BME280;66904;59.926;30.404;2023-07-31T17:45:33;100627.25;;;27.99;51.73
77739;BME280;66904;59.926;30.404;2023-07-31T17:50:34;100621.44;;;27.95;51.72
77739;BME280;66904;59.926;30.404;2023-07-31T17:55:35;100630.44;;;27.96;52.41
77739;BME280;66904;59.926;30.404;2023-07-31T18:00:35;100633.75;;;27.98;52.18
77739;BME280;66904;59.926;30.404;2023-07-31T18:05:36;100638.97;;;27.99;52.38
77739;BME280;66904;59.926;30.404;2023-07-31T18:10:43;100631.41;;;28.01;53.26
77739;BME280;66904;59.926;30.404;2023-07-31T18:15:45;100634.50;;;28.05;52.75
77739;BME280;66904;59.926;30.404;2023-07-31T18:20:45;100631.59;;;28.06;52.85
77739;BME280;66904;59.926;30.404;2023-07-31T18:25:47;100630.28;;;28.09;52.41
77739;BME280;66904;59.926;30.404;2023-07-31T18:30:47;100621.28;;;28.08;52.58
77739;BME280;66904;59.926;30.404;2023-07-31T18:35:48;100634.06;;;28.08;52.60
77739;BME280;66904;59.926;30.404;2023-07-31T18:40:48;100641.38;;;28.07;52.30
77739;BME280;66904;59.926;30.404;2023-07-31T18:45:49;100642.47;;;28.06;52.26
77739;BME280;66904;59.926;30.404;2023-07-31T18:50:50;100637.22;;;28.05;52.57
77739;BME280;66904;59.926;30.404;2023-07-31T18:55:51;100635.31;;;28.05;52.38
77739;BME280;66904;59.926;30.404;2023-07-31T19:00:52;100620.88;;;28.05;52.52
77739;BME280;66904;59.926;30.404;2023-07-31T19:06:02;100612.28;;;28.08;53.10
77739;BME280;66904;59.926;30.404;2023-07-31T19:11:03;100605.41;;;28.05;52.65
77739;BME280;66904;59.926;30.404;2023-07-31T19:16:04;100609.00;;;28.06;52.27
77739;BME280;66904;59.926;30.404;2023-07-31T19:21:04;100602.09;;;28.03;52.49
77739;BME280;66904;59.926;30.404;2023-07-31T19:26:05;100604.19;;;28.01;52.64
77739;BME280;66904;59.926;30.404;2023-07-31T19:31:05;100583.16;;;27.97;52.40
77739;BME280;66904;59.926;30.404;2023-07-31T19:36:06;100592.72;;;27.99;52.62
77739;BME280;66904;59.926;30.404;2023-07-31T19:41:07;100585.88;;;27.97;52.64
77739;BME280;66904;59.926;30.404;2023-07-31T19:46:08;100588.59;;;27.97;52.64
77739;BME280;66904;59.926;30.404;2023-07-31T19:51:08;100598.84;;;27.95;52.44
77739;BME280;66904;59.926;30.404;2023-07-31T19:56:09;100599.09;;;27.93;52.38
77739;BME280;66904;59.926;30.404;2023-07-31T20:01:10;100610.44;;;27.90;52.29
77739;BME280;66904;59.926;30.404;2023-07-31T20:06:10;100618.81;;;27.89;52.57
77739;BME280;66904;59.926;30.404;2023-07-31T20:11:11;100611.50;;;27.89;52.16
77739;BME280;66904;59.926;30.404;2023-07-31T20:16:11;100627.56;;;27.91;52.65
77739;BME280;66904;59.926;30.404;2023-07-31T20:21:12;100626.75;;;27.90;52.54
77739;BME280;66904;59.926;30.404;2023-07-31T20:26:13;100624.84;;;27.91;52.39
77739;BME280;66904;59.926;30.404;2023-07-31T20:31:13;100636.56;;;27.91;52.44
77739;BME280;66904;59.926;30.404;2023-07-31T20:36:15;100636.34;;;27.93;52.35
77739;BME280;66904;59.926;30.404;2023-07-31T20:41:16;100633.38;;;27.94;52.90
77739;BME280;66904;59.926;30.404;2023-07-31T20:46:16;100642.97;;;27.97;52.78
77739;BME280;66904;59.926;30.404;2023-07-31T20:51:17;100646.53;;;27.97;52.83
77739;BME280;66904;59.926;30.404;2023-07-31T20:56:18;100646.28;;;27.99;52.82
77739;BME280;66904;59.926;30.404;2023-07-31T21:01:19;100652.56;;;27.99;52.43
77739;BME280;66904;59.926;30.404;2023-07-31T21:06:19;100649.59;;;28.01;52.61
77739;BME280;66904;59.926;30.404;2023-07-31T21:11:21;100643.94;;;28.02;52.71
77739;BME280;66904;59.926;30.404;2023-07-31T21:16:21;100642.06;;;28.03;52.60
77739;BME280;66904;59.926;30.404;2023-07-31T21:21:22;100628.94;;;28.00;52.94
77739;BME280;66904;59.926;30.404;2023-07-31T21:26:22;100632.84;;;28.04;52.78
77739;BME280;66904;59.926;30.404;2023-07-31T21:31:23;100630.13;;;28.04;52.72
77739;BME280;66904;59.926;30.404;2023-07-31T21:36:23;100634.13;;;28.01;53.06
77739;BME280;66904;59.926;30.404;2023-07-31T21:41:24;100638.97;;;27.99;52.94
77739;BME280;66904;59.926;30.404;2023-07-31T21:46:25;100635.03;;;27.95;52.83
77739;BME280;66904;59.926;30.404;2023-07-31T21:51:25;100630.91;;;27.93;53.11
77739;BME280;66904;59.926;30.404;2023-07-31T21:56:26;100629.22;;;27.92;53.04
77739;BME280;66904;59.926;30.404;2023-07-31T22:01:26;100629.69;;;27.89;52.81
77739;BME280;66904;59.926;30.404;2023-07-31T22:06:27;100629.94;;;27.87;52.95
77739;BME280;66904;59.926;30.404;2023-07-31T22:11:27;100628.72;;;27.83;53.19
77739;BME280;66904;59.926;30.404;2023-07-31T22:16:28;100643.97;;;27.84;53.26
77739;BME280;66904;59.926;30.404;2023-07-31T22:21:28;100635.22;;;27.82;53.38
77739;BME280;66904;59.926;30.404;2023-07-31T22:26:29;100644.78;;;27.85;52.88
77739;BME280;66904;59.926;30.404;2023-07-31T22:31:29;100646.69;;;27.84;53.17
77739;BME280;66904;59.926;30.404;2023-07-31T22:36:30;100650.22;;;27.85;53.36
77739;BME280;66904;59.926;30.404;2023-07-31T22:41:30;100640.44;;;27.84;53.21
77739;BME280;66904;59.926;30.404;2023-07-31T22:46:31;100643.97;;;27.84;53.09
77739;BME280;66904;59.926;30.404;2023-07-31T22:51:32;100627.06;;;27.82;53.05
77739;BME280;66904;59.926;30.404;2023-07-31T22:56:33;100625.38;;;27.81;53.50
77739;BME280;66904;59.926;30.404;2023-07-31T23:01:33;100631.06;;;27.80;53.38
77739;BME280;66904;59.926;30.404;2023-07-31T23:06:34;100647.13;;;27.81;53.47
77739;BME280;66904;59.926;30.404;2023-07-31T23:11:34;100640.91;;;27.81;53.27
77739;BME280;66904;59.926;30.404;2023-07-31T23:16:35;100643.81;;;27.79;52.93
77739;BME280;66904;59.926;30.404;2023-07-31T23:21:35;100636.13;;;27.76;53.29
77739;BME280;66904;59.926;30.404;2023-07-31T23:26:36;100647.38;;;27.80;53.59
77739;BME280;66904;59.926;30.404;2023-07-31T23:31:37;100653.66;;;27.80;53.34
77739;BME280;66904;59.926;30.404;2023-07-31T23:36:37;100650.94;;;27.80;52.90
77739;BME280;66904;59.926;30.404;2023-07-31T23:41:38;100639.31;;;27.73;53.50
77739;BME280;66904;59.926;30.404;2023-07-31T23:46:38;100644.88;;;27.78;53.22
77739;BME280;66904;59.926;30.404;2023-07-31T23:51:46;100648.44;;;27.79;53.24
77739;BME280;66904;59.926;30.404;2023-07-31T23:56:46;100646.75;;;27.78;52.91
